Time;durP1;ratioP1;P1;durP2;ratioP2;P2;SDS_P1;SDS_P2;PMS_P1;PMS_P2;Temp;Humidity;BMP_temperature;BMP_pressure;BME280_temperature;BME280_humidity;BME280_pressure;Samples;Min_cycle;Max_cycle;Signal;HPM_P1;HPM_P2
2023/09/08 00:02:26;;;;;;;5.53;1.80;;;;;;;13.23;56.96;100184.03;5036120;28;20138;-62
2023/09/08 00:04:52;;;;;;;4.72;1.50;;;;;;;13.20;56.84;100185.16;5052080;28;20040;-61
2023/09/08 00:07:18;;;;;;;2.17;1.60;;;;;;;13.14;57.04;100174.94;5052845;28;20193;-59
2023/09/08 00:09:43;;;;;;;2.55;1.23;;;;;;;13.21;56.73;100173.44;5052048;28;20057;-62
2023/09/08 00:12:09;;;;;;;3.85;1.55;;;;;;;13.13;57.14;100169.69;5052661;28;20068;-63
2023/09/08 00:14:35;;;;;;;3.08;1.40;;;;;;;13.22;56.56;100179.66;5052619;28;20037;-57
2023/09/08 00:17:00;;;;;;;4.07;1.60;;;;;;;13.15;56.72;100165.03;5052593;28;20404;-59
2023/09/08 00:19:26;;;;;;;4.45;2.00;;;;;;;13.20;56.59;100176.25;5051793;28;20086;-59
2023/09/08 00:21:51;;;;;;;3.08;1.10;;;;;;;13.15;56.20;100176.66;5034401;28;20025;-63
2023/09/08 00:24:18;;;;;;;1.75;1.20;;;;;;;13.19;56.29;100179.91;5035168;28;20444;-60
2023/09/08 00:26:44;;;;;;;4.30;1.83;;;;;;;13.15;56.38;100175.78;5052570;28;20093;-59
2023/09/08 00:29:10;;;;;;;3.38;1.80;;;;;;;13.12;56.70;100168.81;5051370;28;20036;-59
2023/09/08 00:31:35;;;;;;;3.78;1.63;;;;;;;13.14;56.72;100168.72;5052580;28;20029;-59
2023/09/08 00:34:01;;;;;;;4.20;1.95;;;;;;;12.90;56.92;100130.38;5052626;28;20395;-60
2023/09/08 00:36:26;;;;;;;2.65;1.70;;;;;;;12.87;56.62;100124.41;5052757;28;20348;-59
2023/09/08 00:38:52;;;;;;;3.80;1.33;;;;;;;13.14;56.58;100176.78;5051931;28;20063;-62
2023/09/08 00:41:18;;;;;;;6.57;1.42;;;;;;;13.13;56.57;100161.63;5052072;28;20032;-61
2023/09/08 00:43:43;;;;;;;3.85;1.40;;;;;;;13.19;56.63;100177.22;5052360;28;20195;-61
2023/09/08 00:46:09;;;;;;;4.30;1.70;;;;;;;13.14;56.65;100163.34;5052359;28;20154;-58
2023/09/08 00:48:35;;;;;;;5.32;1.63;;;;;;;13.17;56.89;100160.38;5051326;28;20122;-61
2023/09/08 00:51:01;;;;;;;2.35;1.50;;;;;;;13.20;57.23;100154.72;5050738;28;20025;-61
2023/09/08 00:53:27;;;;;;;3.72;1.50;;;;;;;13.23;56.64;100162.53;5051673;28;20056;-61
2023/09/08 00:55:54;;;;;;;3.00;1.25;;;;;;;13.02;56.65;100124.91;5051794;28;20036;-57
2023/09/08 00:58:20;;;;;;;4.32;1.40;;;;;;;13.15;56.58;100147.09;5051710;28;20029;-58
2023/09/08 01:00:46;;;;;;;6.15;1.42;;;;;;;13.18;56.96;100156.69;5052032;28;20025;-59
2023/09/08 01:03:12;;;;;;;3.47;1.60;;;;;;;13.20;56.69;100152.03;5051387;28;20349;-57
2023/09/08 01:05:38;;;;;;;3.78;1.52;;;;;;;13.17;56.89;100153.19;5052325;28;20478;-62
2023/09/08 01:08:05;;;;;;;2.85;1.30;;;;;;;13.19;56.36;100159.28;5052266;28;20135;-62
2023/09/08 01:10:31;;;;;;;4.47;1.20;;;;;;;13.14;56.88;100155.28;5049756;28;20021;-62
2023/09/08 01:12:57;;;;;;;2.95;1.23;;;;;;;13.10;56.50;100146.59;5050666;28;20143;-60
2023/09/08 01:15:23;;;;;;;3.70;1.55;;;;;;;13.06;56.69;100151.41;5052672;28;20055;-63
2023/09/08 01:17:49;;;;;;;4.85;1.38;;;;;;;13.08;56.61;100143.19;5050778;28;20613;-60
2023/09/08 01:20:24;;;;;;;2.42;1.25;;;;;;;13.15;56.70;100155.16;5050166;28;20036;-60
2023/09/08 01:23:21;;;;;;;2.65;1.60;;;;;;;13.20;56.65;100160.09;5051984;28;20036;-57
2023/09/08 01:25:54;;;;;;;2.17;1.60;;;;;;;13.15;56.60;100152.47;5052230;28;20048;-60
2023/09/08 01:28:21;;;;;;;3.38;1.65;;;;;;;12.99;56.81;100146.69;5050869;28;20048;-61
2023/09/08 01:30:48;;;;;;;4.45;1.20;;;;;;;13.03;56.95;100148.13;5054458;28;20039;-59
2023/09/08 01:33:13;;;;;;;1.40;1.27;;;;;;;12.99;57.26;100142.16;5055852;28;20043;-59
2023/09/08 01:35:39;;;;;;;2.70;1.55;;;;;;;12.75;57.31;100105.66;5055227;28;20112;-61
2023/09/08 01:38:05;;;;;;;2.78;1.25;;;;;;;12.97;57.53;100141.44;5055527;28;20032;-60
2023/09/08 01:40:30;;;;;;;3.03;1.40;;;;;;;12.99;57.93;100144.84;5055101;28;20455;-60
2023/09/08 01:42:56;;;;;;;2.10;1.13;;;;;;;12.96;58.28;100138.91;5054779;28;20036;-63
2023/09/08 01:45:21;;;;;;;1.63;1.40;;;;;;;12.96;58.85;100147.78;5054725;28;20060;-60
2023/09/08 01:47:47;;;;;;;2.35;1.30;;;;;;;12.94;59.27;100140.88;5055363;28;20029;-61
2023/09/08 01:50:12;;;;;;;3.60;1.42;;;;;;;12.89;59.66;100133.19;5054112;28;20382;-62
2023/09/08 01:52:38;;;;;;;2.72;1.50;;;;;;;12.85;60.00;100137.13;5055199;28;20037;-59
2023/09/08 01:55:04;;;;;;;2.63;1.20;;;;;;;12.75;60.71;100131.69;5055127;28;20530;-61
2023/09/08 01:57:30;;;;;;;2.28;1.30;;;;;;;12.67;60.34;100112.69;5055161;28;20116;-61
2023/09/08 01:59:56;;;;;;;2.60;1.30;;;;;;;12.60;60.75;100113.19;5053720;28;20104;-60
2023/09/08 02:02:21;;;;;;;3.33;1.20;;;;;;;12.46;61.01;100082.13;5054875;28;20029;-60
2023/09/08 02:04:48;;;;;;;5.82;1.20;;;;;;;12.59;61.43;100116.84;5054749;28;20491;-59
2023/09/08 02:07:14;;;;;;;3.60;1.30;;;;;;;12.47;62.10;100110.69;5055006;28;20033;-60
2023/09/08 02:09:39;;;;;;;3.47;1.30;;;;;;;12.41;62.36;100116.56;5054631;28;20120;-60
2023/09/08 02:12:05;;;;;;;1.90;1.30;;;;;;;12.26;62.10;100091.88;5054838;28;20294;-59
2023/09/08 02:14:31;;;;;;;2.88;1.15;;;;;;;12.36;62.70;100118.81;5055229;28;20483;-61
2023/09/08 02:16:56;;;;;;;3.28;1.25;;;;;;;12.36;62.79;100118.81;5055258;28;20044;-56
2023/09/08 02:19:23;;;;;;;2.13;1.27;;;;;;;12.34;62.83;100104.66;5054344;28;20031;-60
2023/09/08 02:21:48;;;;;;;2.53;1.10;;;;;;;12.16;63.47;100078.38;5054651;28;20831;-59
2023/09/08 02:24:14;;;;;;;3.50;1.30;;;;;;;12.06;63.35;100050.59;5054713;28;20036;-58
2023/09/08 02:26:40;;;;;;;3.28;1.30;;;;;;;12.33;64.00;100101.09;5054646;28;20037;-57
2023/09/08 02:29:06;;;;;;;2.15;1.40;;;;;;;12.34;63.89;100083.19;5054014;28;20401;-60
2023/09/08 02:31:31;;;;;;;2.20;1.10;;;;;;;12.33;63.59;100078.78;5054956;28;20123;-60
2023/09/08 02:33:57;;;;;;;3.05;1.48;;;;;;;12.38;63.76;100081.94;5055195;28;20061;-60
2023/09/08 02:36:25;;;;;;;2.30;1.60;;;;;;;12.34;63.62;100081.34;5054536;28;20366;-57
2023/09/08 02:38:55;;;;;;;2.03;1.40;;;;;;;12.41;63.73;100079.00;5053993;28;20040;-59
2023/09/08 02:41:21;;;;;;;1.48;1.20;;;;;;;12.39;63.68;100078.28;5053830;28;20040;-60
2023/09/08 02:43:46;;;;;;;3.08;1.27;;;;;;;12.40;64.25;100073.72;5054468;28;20025;-61
2023/09/08 02:46:13;;;;;;;4.82;1.35;;;;;;;12.37;64.08;100063.25;5054289;28;20087;-59
2023/09/08 02:48:39;;;;;;;3.05;1.30;;;;;;;12.41;64.18;100065.56;5053854;28;20043;-60
2023/09/08 02:51:04;;;;;;;3.38;1.40;;;;;;;12.46;63.35;100068.69;5053524;28;20116;-57
2023/09/08 02:53:30;;;;;;;2.78;1.20;;;;;;;12.45;63.50;100077.75;5053305;28;20021;-65
2023/09/08 02:55:57;;;;;;;3.67;1.33;;;;;;;12.48;63.04;100077.47;5052893;28;20334;-60
2023/09/08 02:58:22;;;;;;;1.58;1.20;;;;;;;12.50;63.30;100074.69;5052642;28;20047;-58
2023/09/08 03:00:48;;;;;;;3.47;1.20;;;;;;;12.53;63.26;100069.03;5054244;28;20029;-59
2023/09/08 03:03:14;;;;;;;4.68;1.55;;;;;;;12.53;63.39;100076.22;5054178;28;20036;-60
2023/09/08 03:05:39;;;;;;;4.22;1.27;;;;;;;12.42;63.37;100055.66;5053937;28;20032;-61
2023/09/08 03:08:05;;;;;;;3.25;1.40;;;;;;;12.50;63.80;100074.69;5053777;28;20096;-59
2023/09/08 03:10:34;;;;;;;2.50;1.40;;;;;;;12.49;63.75;100067.59;5053757;28;20414;-64
2023/09/08 03:13:00;;;;;;;2.05;1.50;;;;;;;12.58;64.01;100068.66;5054383;28;20051;-59
2023/09/08 03:15:28;;;;;;;2.08;1.55;;;;;;;12.56;63.74;100054.50;5053685;28;20065;-61
2023/09/08 03:18:00;;;;;;;4.25;1.52;;;;;;;12.73;64.03;100064.63;5053429;28;20068;-59
2023/09/08 03:20:28;;;;;;;3.50;1.20;;;;;;;12.71;63.44;100063.91;5052939;28;20363;-59
2023/09/08 03:22:54;;;;;;;4.70;1.40;;;;;;;12.73;63.38;100064.63;5053747;28;20043;-57
2023/09/08 03:25:19;;;;;;;3.42;1.35;;;;;;;12.76;63.69;100059.00;5053230;28;20097;-61
2023/09/08 03:27:45;;;;;;;2.72;1.30;;;;;;;12.81;63.47;100053.22;5053327;28;20041;-60
2023/09/08 03:30:11;;;;;;;1.55;1.30;;;;;;;12.89;63.55;100063.31;5052232;28;20028;-61
2023/09/08 03:32:37;;;;;;;1.70;1.27;;;;;;;12.96;62.76;100061.78;5053345;28;20036;-60
2023/09/08 03:35:04;;;;;;;4.32;1.50;;;;;;;12.83;62.16;100032.44;5052643;28;20071;-64
2023/09/08 03:37:30;;;;;;;2.33;1.40;;;;;;;13.04;62.24;100062.00;5053887;28;20033;-59
2023/09/08 03:39:55;;;;;;;1.98;1.48;;;;;;;13.04;61.90;100062.00;5035104;28;20033;-60
2023/09/08 03:42:21;;;;;;;2.95;1.27;;;;;;;13.15;61.35;100054.81;5052786;28;20036;-60
2023/09/08 03:44:46;;;;;;;1.85;1.20;;;;;;;13.20;61.39;100045.38;5052055;28;20455;-61
2023/09/08 03:47:12;;;;;;;1.95;1.40;;;;;;;13.29;60.78;100050.91;5053437;28;20119;-61
2023/09/08 03:49:37;;;;;;;3.50;1.20;;;;;;;13.28;60.50;100055.44;5052798;28;20064;-60
2023/09/08 03:52:03;;;;;;;2.17;1.17;;;;;;;13.31;60.89;100051.63;5052559;28;20033;-59
2023/09/08 03:54:29;;;;;;;3.60;1.15;;;;;;;13.35;60.75;100036.91;5053513;28;20025;-60
2023/09/08 03:56:55;;;;;;;2.10;1.30;;;;;;;13.44;59.35;100041.50;5052138;28;20048;-59
2023/09/08 03:59:21;;;;;;;2.40;1.25;;;;;;;13.45;60.13;100045.91;5034639;28;20091;-58
2023/09/08 04:01:46;;;;;;;1.73;1.23;;;;;;;13.39;59.42;100032.97;5053386;28;20064;-60
2023/09/08 04:04:12;;;;;;;5.60;1.50;;;;;;;13.54;59.04;100038.84;5052816;28;20063;-62
2023/09/08 04:06:37;;;;;;;3.10;1.13;;;;;;;13.49;58.52;100003.41;5031660;28;20037;-59
2023/09/08 04:09:03;;;;;;;2.45;1.30;;;;;;;13.98;58.42;100032.22;5043407;28;20485;-62
2023/09/08 04:11:29;;;;;;;3.75;1.20;;;;;;;14.28;56.61;100033.09;5052691;28;20048;-61
2023/09/08 04:13:54;;;;;;;1.38;1.17;;;;;;;14.64;55.35;100041.41;5051593;28;20039;-61
2023/09/08 04:16:20;;;;;;;2.20;1.27;;;;;;;14.99;54.05;100026.44;5051982;28;20107;-61
2023/09/08 04:18:45;;;;;;;4.47;1.27;;;;;;;15.16;53.70;100032.03;5051523;28;20494;-60
2023/09/08 04:21:11;;;;;;;3.42;1.25;;;;;;;15.21;53.75;100027.91;5052319;28;20041;-60
2023/09/08 04:23:36;;;;;;;1.88;1.27;;;;;;;15.57;52.86;100029.84;5051427;28;20436;-62
2023/09/08 04:26:02;;;;;;;2.70;1.60;;;;;;;15.73;51.85;100020.25;5053065;28;20033;-60
2023/09/08 04:28:27;;;;;;;8.07;1.50;;;;;;;15.92;51.34;100027.38;5052363;28;20532;-61
2023/09/08 04:30:53;;;;;;;2.85;1.05;;;;;;;16.14;50.44;100023.34;5052220;28;20040;-62
2023/09/08 04:33:19;;;;;;;2.67;1.25;;;;;;;16.41;49.40;100028.81;5051386;28;20086;-61
2023/09/08 04:35:44;;;;;;;2.80;1.17;;;;;;;16.52;49.42;100017.75;5051562;28;20033;-62
2023/09/08 04:38:11;;;;;;;6.05;1.23;;;;;;;16.47;49.14;100014.66;5052251;28;20025;-58
2023/09/08 04:40:39;;;;;;;1.88;1.00;;;;;;;16.48;48.96;100021.75;5052528;28;20035;-66
2023/09/08 04:43:05;;;;;;;2.58;1.00;;;;;;;16.50;48.72;100017.91;5052426;28;20038;-62
2023/09/08 04:45:30;;;;;;;1.25;1.00;;;;;;;16.64;48.13;100016.47;5052457;28;20086;-62
2023/09/08 04:47:56;;;;;;;2.67;1.20;;;;;;;16.64;48.04;100012.94;5034754;28;20029;-61
2023/09/08 04:50:21;;;;;;;2.28;1.10;;;;;;;16.56;48.54;100008.31;5052305;28;20347;-61
2023/09/08 04:52:46;;;;;;;1.48;1.23;;;;;;;16.48;48.42;99981.22;5051764;28;20384;-61
2023/09/08 04:55:12;;;;;;;2.45;1.17;;;;;;;16.73;47.67;99998.44;5052431;28;20036;-60
2023/09/08 04:57:38;;;;;;;3.05;1.30;;;;;;;16.82;47.56;100012.00;5052614;28;20044;-62
2023/09/08 05:00:04;;;;;;;2.58;1.50;;;;;;;16.64;47.98;100015.63;5052434;28;20045;-60
2023/09/08 05:02:33;;;;;;;2.47;1.35;;;;;;;16.41;48.80;100013.44;5052115;28;20025;-62
2023/09/08 05:05:00;;;;;;;2.78;1.35;;;;;;;16.16;49.34;100002.44;5053966;28;20432;-61
2023/09/08 05:07:25;;;;;;;1.65;1.20;;;;;;;16.07;49.05;99965.56;5056405;28;20033;-61
2023/09/08 05:09:51;;;;;;;2.40;1.10;;;;;;;16.54;48.33;99966.22;5056271;28;20094;-61
2023/09/08 05:12:17;;;;;;;2.42;1.40;;;;;;;17.16;46.73;99993.09;5055542;28;20045;-61
2023/09/08 05:14:42;;;;;;;3.47;1.20;;;;;;;17.90;45.26;99973.50;5056113;28;20040;-62
2023/09/08 05:17:08;;;;;;;2.50;1.13;;;;;;;18.54;42.68;99974.69;5055078;28;20090;-61
2023/09/08 05:19:33;;;;;;;2.55;1.00;;;;;;;19.94;40.01;99975.09;5056014;28;20175;-62
2023/09/08 05:21:59;;;;;;;2.10;0.90;;;;;;;21.36;37.01;99980.78;5054465;28;20028;-61
2023/09/08 05:24:26;;;;;;;1.52;0.98;;;;;;;21.82;35.91;99965.16;5055124;28;20033;-63
2023/09/08 05:26:51;;;;;;;1.77;1.15;;;;;;;22.88;33.87;99967.06;5055696;28;20108;-60
2023/09/08 05:29:17;;;;;;;3.40;1.35;;;;;;;23.90;32.16;99957.31;5055990;28;20121;-63
2023/09/08 05:31:43;;;;;;;1.20;1.00;;;;;;;23.08;32.72;99958.94;5038158;28;20033;-61
2023/09/08 05:34:09;;;;;;;4.05;0.93;;;;;;;21.90;34.42;99962.31;5055426;28;20033;-58
2023/09/08 05:36:36;;;;;;;1.70;0.95;;;;;;;20.83;36.45;99948.25;5055131;28;20036;-59
2023/09/08 05:39:02;;;;;;;2.85;1.02;;;;;;;20.40;38.19;99966.03;5055559;28;20083;-59
2023/09/08 05:41:28;;;;;;;2.22;1.10;;;;;;;20.31;37.76;99961.72;5055338;28;20477;-64
2023/09/08 05:43:54;;;;;;;2.85;1.20;;;;;;;20.82;36.38;99943.84;5055675;28;20041;-59
2023/09/08 05:46:19;;;;;;;1.92;1.20;;;;;;;22.86;33.85;99946.44;5054891;28;20082;-60
2023/09/08 05:48:45;;;;;;;5.15;2.72;;;;;;;25.00;30.31;99953.25;5055429;28;20040;-59
2023/09/08 05:51:11;;;;;;;1.63;1.20;;;;;;;26.67;27.46;99952.34;5055349;28;20025;-61
2023/09/08 05:53:39;;;;;;;2.15;0.93;;;;;;;28.34;24.83;99929.16;5054843;28;20021;-60
2023/09/08 05:56:05;;;;;;;2.05;1.20;;;;;;;30.02;22.84;99941.38;5055308;28;20079;-58
2023/09/08 05:58:30;;;;;;;3.33;0.98;;;;;;;31.61;20.84;99926.34;5055020;28;20057;-60
2023/09/08 06:00:56;;;;;;;4.97;1.25;;;;;;;32.84;19.27;99935.84;5054505;28;20477;-60
2023/09/08 06:03:21;;;;;;;2.10;0.80;;;;;;;32.11;20.06;99938.16;5054205;28;20029;-60
2023/09/08 06:05:47;;;;;;;4.38;1.25;;;;;;;30.81;21.08;99927.63;5054800;28;20456;-61
2023/09/08 06:08:13;;;;;;;2.05;0.75;;;;;;;29.48;22.53;99933.50;5055068;28;20321;-58
2023/09/08 06:10:38;;;;;;;1.52;0.82;;;;;;;28.86;23.07;99896.41;5054494;28;20132;-61
2023/09/08 06:13:04;;;;;;;2.80;1.30;;;;;;;28.22;23.52;99909.88;5054960;28;20063;-60
2023/09/08 06:15:30;;;;;;;1.63;1.02;;;;;;;27.49;24.69;99920.06;5054675;28;20108;-58
2023/09/08 06:17:55;;;;;;;1.85;1.20;;;;;;;26.22;26.08;99921.31;5054593;28;20040;-58
2023/09/08 06:20:21;;;;;;;2.20;0.90;;;;;;;25.20;27.34;99914.81;5054792;28;20025;-60
2023/09/08 06:22:47;;;;;;;1.48;1.00;;;;;;;24.82;27.90;99884.63;5054926;28;20059;-59
2023/09/08 06:25:12;;;;;;;3.78;1.08;;;;;;;24.47;27.90;99888.50;5054357;28;20422;-63
2023/09/08 06:27:39;;;;;;;2.45;1.20;;;;;;;23.88;29.20;99919.28;5054631;28;20028;-61
2023/09/08 06:30:05;;;;;;;1.92;1.10;;;;;;;22.83;30.94;99922.28;5054521;28;20061;-58
2023/09/08 06:32:32;;;;;;;2.95;1.30;;;;;;;21.55;32.53;99927.56;5053756;28;20075;-57
2023/09/08 06:34:58;;;;;;;4.85;1.02;;;;;;;20.55;34.00;99918.97;5054152;28;20036;-59
2023/09/08 06:37:24;;;;;;;4.30;1.10;;;;;;;19.90;35.61;99917.53;5054445;28;20024;-57
2023/09/08 06:39:49;;;;;;;4.35;1.20;;;;;;;19.45;37.00;99914.63;5054028;28;20444;-55
2023/09/08 06:42:14;;;;;;;4.05;1.35;;;;;;;19.25;36.86;99905.25;5053942;28;20025;-59
2023/09/08 06:44:40;;;;;;;3.55;1.50;;;;;;;19.44;36.57;99901.22;5054392;28;20116;-58
2023/09/08 06:47:07;;;;;;;5.35;1.27;;;;;;;19.68;36.34;99900.22;5053610;28;20104;-57
2023/09/08 06:49:33;;;;;;;2.00;1.17;;;;;;;19.54;36.72;99901.84;5054327;28;20095;-59
2023/09/08 06:51:59;;;;;;;2.47;1.05;;;;;;;19.15;37.35;99894.63;5054335;28;20445;-58
2023/09/08 06:54:24;;;;;;;2.53;1.40;;;;;;;18.90;38.54;99879.28;5053172;28;20041;-58
2023/09/08 06:56:50;;;;;;;1.88;1.25;;;;;;;18.92;39.46;99873.69;5054207;28;20025;-57
2023/09/08 06:59:17;;;;;;;3.30;1.33;;;;;;;19.68;37.93;99867.63;5054089;28;20099;-59
2023/09/08 07:01:42;;;;;;;3.53;1.45;;;;;;;20.40;36.21;99870.03;5054649;28;20056;-59
2023/09/08 07:04:08;;;;;;;3.88;1.10;;;;;;;21.14;34.25;99885.44;5053393;28;20071;-59
2023/09/08 07:06:35;;;;;;;3.13;1.10;;;;;;;21.81;32.89;99868.94;5053968;28;20033;-60
2023/09/08 07:09:01;;;;;;;2.30;1.00;;;;;;;22.45;30.94;99804.34;5053869;28;20402;-60
2023/09/08 07:11:27;;;;;;;3.67;1.20;;;;;;;25.28;27.05;99866.31;5053001;28;20439;-58
2023/09/08 07:13:52;;;;;;;2.30;0.90;;;;;;;27.37;24.25;99849.41;5053523;28;20458;-58
2023/09/08 07:16:17;;;;;;;1.90;0.90;;;;;;;30.15;21.18;99851.84;5053689;28;20112;-61
2023/09/08 07:18:43;;;;;;;4.22;1.20;;;;;;;33.69;18.00;99848.72;5053776;28;20363;-60
2023/09/08 07:21:09;;;;;;;4.95;1.00;;;;;;;36.12;15.60;99841.09;5053557;28;20040;-61
2023/09/08 07:23:36;;;;;;;4.80;1.02;;;;;;;35.99;15.38;99830.63;5053405;28;20037;-60
2023/09/08 07:26:02;;;;;;;4.95;0.90;;;;;;;36.08;14.69;99828.88;5052663;28;20032;-60
2023/09/08 07:28:27;;;;;;;1.88;0.85;;;;;;;34.86;15.75;99830.34;5052956;28;20451;-60
2023/09/08 07:30:53;;;;;;;1.98;0.75;;;;;;;33.14;17.31;99806.75;5053581;28;20040;-57
2023/09/08 07:33:19;;;;;;;2.15;0.70;;;;;;;31.51;18.11;99827.47;5049634;28;20464;-61
2023/09/08 07:35:44;;;;;;;1.90;0.88;;;;;;;29.50;20.04;99829.28;5051421;28;20029;-58
2023/09/08 07:38:10;;;;;;;1.77;0.70;;;;;;;27.78;22.38;99838.63;5052035;28;20087;-58
2023/09/08 07:40:36;;;;;;;3.90;0.80;;;;;;;26.64;23.59;99834.75;5052395;28;20028;-59
2023/09/08 07:43:02;;;;;;;1.27;0.82;;;;;;;25.82;24.99;99833.88;5051668;28;20074;-61
2023/09/08 07:45:28;;;;;;;1.13;0.85;;;;;;;25.59;25.06;99829.88;5052121;28;20036;-60
2023/09/08 07:47:53;;;;;;;2.13;0.77;;;;;;;25.45;25.50;99812.66;5052034;28;20028;-62
2023/09/08 07:50:26;;;;;;;4.55;1.15;;;;;;;25.24;26.02;99833.00;5052749;28;20029;-62
2023/09/08 07:52:54;;;;;;;1.70;1.23;;;;;;;24.45;26.91;99823.06;5052482;28;20036;-58
2023/09/08 07:55:22;;;;;;;2.17;0.82;;;;;;;24.28;27.35;99810.91;5051537;28;20037;-56
2023/09/08 07:57:50;;;;;;;2.38;0.80;;;;;;;24.18;27.27;99814.94;5050969;28;20066;-62
2023/09/08 08:00:17;;;;;;;3.78;0.93;;;;;;;23.67;28.22;99801.94;5052673;28;20033;-60
2023/09/08 08:02:56;;;;;;;2.75;0.93;;;;;;;23.72;27.79;99807.59;5050972;28;20028;-59
2023/09/08 08:05:22;;;;;;;3.85;1.00;;;;;;;24.16;27.42;99794.31;5049784;28;20037;-57
2023/09/08 08:07:48;;;;;;;2.55;0.82;;;;;;;24.58;26.80;99792.06;5051898;28;20031;-61
2023/09/08 08:10:14;;;;;;;3.20;1.20;;;;;;;24.88;26.18;99779.75;5052266;28;20124;-59
2023/09/08 08:12:41;;;;;;;4.10;1.08;;;;;;;25.21;26.59;99786.88;5052295;28;20052;-61
2023/09/08 08:15:09;;;;;;;6.15;1.13;;;;;;;25.24;26.86;99780.97;5051530;28;20508;-61
2023/09/08 08:17:35;;;;;;;1.50;0.90;;;;;;;25.04;26.38;99778.38;5051962;28;20041;-60
2023/09/08 08:20:09;;;;;;;2.28;0.80;;;;;;;24.72;27.18;99776.41;5050681;28;20437;-64
2023/09/08 08:22:38;;;;;;;5.82;1.00;;;;;;;24.29;27.49;99783.34;5046939;28;20040;-64
2023/09/08 08:25:04;;;;;;;1.48;0.90;;;;;;;23.34;28.46;99766.19;5049147;28;20095;-66
2023/09/08 08:27:33;;;;;;;3.90;1.00;;;;;;;22.53;29.91;99764.31;5032271;28;20020;-64
2023/09/08 08:30:00;;;;;;;2.75;0.90;;;;;;;21.73;31.21;99755.47;5050408;28;20044;-64
2023/09/08 08:32:34;;;;;;;3.28;0.90;;;;;;;21.36;31.82;99755.59;5041638;28;20053;-62
2023/09/08 08:34:59;;;;;;;2.05;0.90;;;;;;;21.02;32.44;99748.16;5050019;28;20515;-62
2023/09/08 08:37:25;;;;;;;2.08;0.90;;;;;;;21.06;32.80;99744.00;5049687;28;20483;-63
2023/09/08 08:39:51;;;;;;;3.88;0.90;;;;;;;21.15;32.42;99737.41;5047827;28;20060;-65
2023/09/08 08:42:16;;;;;;;3.53;1.10;;;;;;;21.33;32.34;99747.81;5051070;28;20032;-65
2023/09/08 08:44:43;;;;;;;4.43;1.40;;;;;;;21.58;32.44;99733.75;5050357;28;20043;-64
2023/09/08 08:47:10;;;;;;;3.83;1.10;;;;;;;21.63;32.19;99739.44;5051589;28;20507;-64
2023/09/08 08:49:38;;;;;;;3.85;0.98;;;;;;;21.56;32.64;99738.56;5044575;28;20033;-64
2023/09/08 08:52:07;;;;;;;0.80;0.73;;;;;;;21.22;32.94;99726.56;5037784;28;20039;-64
2023/09/08 08:54:42;;;;;;;2.83;0.88;;;;;;;20.90;33.20;99734.22;5037951;28;20090;-61
2023/09/08 08:57:09;;;;;;;3.50;0.88;;;;;;;20.25;34.67;99737.66;5050794;28;20257;-62
2023/09/08 08:59:35;;;;;;;3.63;1.00;;;;;;;19.87;35.54;99730.44;5042447;28;20053;-62
2023/09/08 09:02:03;;;;;;;1.88;0.95;;;;;;;19.59;36.30;99722.91;5050259;28;20029;-60
2023/09/08 09:04:29;;;;;;;4.05;0.85;;;;;;;19.22;37.00;99724.63;5050052;28;20029;-65
2023/09/08 09:06:55;;;;;;;2.47;1.17;;;;;;;18.95;37.86;99718.69;5049940;28;20119;-62
2023/09/08 09:09:21;;;;;;;3.45;1.05;;;;;;;18.72;38.80;99719.53;5051691;28;20082;-65
2023/09/08 09:11:47;;;;;;;2.03;0.90;;;;;;;18.78;39.22;99709.84;5050774;28;20048;-63
2023/09/08 09:14:12;;;;;;;6.95;1.15;;;;;;;19.14;38.29;99702.97;5049864;28;20063;-63
2023/09/08 09:16:43;;;;;;;4.20;1.20;;;;;;;19.73;37.59;99717.66;5050634;28;20040;-63
2023/09/08 09:19:09;;;;;;;3.80;1.15;;;;;;;20.19;36.49;99711.22;5051090;28;20033;-61
2023/09/08 09:21:47;;;;;;;8.30;1.20;;;;;;;20.72;35.90;99710.97;5050254;28;20363;-61
2023/09/08 09:24:27;;;;;;;2.92;0.95;;;;;;;20.75;35.83;99704.31;5051694;28;20359;-61
2023/09/08 09:26:53;;;;;;;1.58;1.08;;;;;;;20.16;36.65;99695.31;5051111;28;20029;-62
2023/09/08 09:29:19;;;;;;;3.50;0.90;;;;;;;19.70;37.68;99710.75;5051260;28;20036;-66
2023/09/08 09:31:56;;;;;;;5.30;1.50;;;;;;;19.49;38.19;99714.19;5051747;28;20029;-60
2023/09/08 09:34:22;;;;;;;1.25;0.80;;;;;;;19.14;39.17;99711.94;5048644;28;20029;-61
2023/09/08 09:36:49;;;;;;;2.33;1.13;;;;;;;18.94;39.59;99704.31;5051082;28;20025;-61
2023/09/08 09:39:26;;;;;;;3.70;1.42;;;;;;;18.96;39.67;99714.97;5051913;28;20033;-61
2023/09/08 09:41:56;;;;;;;4.60;1.25;;;;;;;18.85;39.77;99718.94;5051612;28;20036;-61
2023/09/08 09:44:24;;;;;;;3.55;1.17;;;;;;;18.58;40.44;99701.34;5050959;28;20030;-63
2023/09/08 09:46:53;;;;;;;3.97;1.23;;;;;;;18.45;41.00;99700.06;5051369;28;20037;-62
2023/09/08 09:49:19;;;;;;;5.65;1.17;;;;;;;18.42;41.40;99691.44;5030544;28;20035;-61
2023/09/08 09:51:50;;;;;;;2.22;1.08;;;;;;;18.46;41.07;99700.91;5034603;28;20360;-63
2023/09/08 09:54:16;;;;;;;3.08;1.02;;;;;;;18.30;40.89;99672.88;5041156;28;20112;-58
2023/09/08 09:56:43;;;;;;;4.80;0.98;;;;;;;18.30;41.03;99690.97;5055222;28;20021;-61
2023/09/08 09:59:12;;;;;;;3.63;1.10;;;;;;;18.05;41.16;99685.69;5054060;28;20041;-57
2023/09/08 10:01:39;;;;;;;5.55;1.27;;;;;;;17.83;41.78;99696.22;5054584;28;20111;-58
2023/09/08 10:04:06;;;;;;;1.75;0.80;;;;;;;17.79;42.38;99690.34;5053648;28;20036;-59
2023/09/08 10:06:33;;;;;;;7.40;1.45;;;;;;;17.79;42.74;99694.91;5054689;28;20033;-59
2023/09/08 10:09:01;;;;;;;2.28;1.17;;;;;;;17.68;43.09;99703.41;5053414;28;20025;-60
2023/09/08 10:11:30;;;;;;;1.90;0.90;;;;;;;17.46;44.99;99708.53;5032312;28;20045;-61
2023/09/08 10:13:59;;;;;;;2.63;0.90;;;;;;;17.17;46.64;99724.28;5054170;28;20041;-60
2023/09/08 10:16:27;;;;;;;4.60;1.40;;;;;;;16.79;49.59;99729.31;5054390;28;20029;-61
2023/09/08 10:18:54;;;;;;;5.18;1.80;;;;;;;16.26;51.47;99685.44;5052615;28;20135;-60
2023/09/08 10:21:23;;;;;;;3.72;1.23;;;;;;;16.22;53.64;99725.44;5054284;28;20332;-63
2023/09/08 10:24:01;;;;;;;3.58;1.20;;;;;;;16.24;53.45;99730.69;5043880;28;20033;-61
2023/09/08 10:26:29;;;;;;;2.65;1.00;;;;;;;16.01;54.88;99729.38;5053060;28;20119;-60
2023/09/08 10:28:56;;;;;;;7.30;1.60;;;;;;;15.85;55.82;99722.03;5053175;28;20104;-60
2023/09/08 10:31:26;;;;;;;6.20;1.77;;;;;;;15.53;56.87;99715.44;5054201;28;20025;-59
2023/09/08 10:33:55;;;;;;;4.15;1.52;;;;;;;15.52;58.47;99735.34;5053816;28;20118;-57
2023/09/08 10:36:21;;;;;;;3.90;1.58;;;;;;;15.28;58.92;99723.38;5052973;28;20025;-58
2023/09/08 10:38:49;;;;;;;3.78;1.58;;;;;;;15.10;60.62;99692.88;5053330;28;20059;-60
2023/09/08 10:41:14;;;;;;;2.97;1.60;;;;;;;15.30;62.36;99732.16;5053945;28;20150;-62
2023/09/08 10:43:40;;;;;;;9.05;1.75;;;;;;;15.49;59.38;99722.16;5053315;28;20132;-59
2023/09/08 10:46:10;;;;;;;4.88;1.70;;;;;;;15.74;59.74;99717.75;5053453;28;20033;-59
2023/09/08 10:48:43;;;;;;;5.10;1.65;;;;;;;15.96;59.60;99715.53;5052894;28;20036;-56
2023/09/08 10:51:17;;;;;;;2.88;1.48;;;;;;;16.15;58.52;99676.63;5053231;28;20040;-60
2023/09/08 10:53:46;;;;;;;6.45;1.80;;;;;;;16.63;56.38;99701.22;5053721;28;20040;-56
2023/09/08 10:56:11;;;;;;;4.68;1.63;;;;;;;16.90;56.58;99684.88;5053647;28;20456;-61
2023/09/08 10:58:40;;;;;;;3.55;1.58;;;;;;;17.10;54.10;99665.59;5051658;28;20021;-61
2023/09/08 11:01:06;;;;;;;8.52;1.50;;;;;;;17.53;52.38;99700.56;5053488;28;20086;-60
2023/09/08 11:03:37;;;;;;;4.22;1.20;;;;;;;17.79;51.20;99693.03;5051197;28;20036;-54
2023/09/08 11:06:04;;;;;;;7.03;1.70;;;;;;;17.85;50.96;99682.53;5052408;28;20033;-60
2023/09/08 11:08:30;;;;;;;4.70;1.48;;;;;;;17.88;50.16;99684.88;5053191;28;20033;-62
2023/09/08 11:10:56;;;;;;;3.58;1.40;;;;;;;17.70;49.91;99693.25;5051427;28;21341;-55
2023/09/08 11:13:22;;;;;;;4.40;1.48;;;;;;;17.45;50.60;99693.31;5031451;28;20034;-59
2023/09/08 11:15:50;;;;;;;4.70;1.48;;;;;;;17.03;51.80;99701.44;5035970;28;20452;-64
2023/09/08 11:18:16;;;;;;;1.42;1.00;;;;;;;16.59;51.75;99742.25;5051309;28;20029;-62
2023/09/08 11:20:41;;;;;;;5.35;1.15;;;;;;;15.92;54.83;99725.84;5050990;28;20024;-62
2023/09/08 11:23:07;;;;;;;4.43;1.40;;;;;;;15.51;57.93;99744.44;5051101;28;20410;-61
2023/09/08 11:25:34;;;;;;;3.47;1.20;;;;;;;15.17;59.58;99742.47;5051153;28;20407;-59
2023/09/08 11:28:00;;;;;;;6.80;1.38;;;;;;;14.94;60.97;99742.97;5050383;28;20043;-61